Time;durP1;ratioP1;P1;durP2;ratioP2;P2;SDS_P1;SDS_P2;PMS_P1;PMS_P2;Temp;Humidity;BMP_temperature;BMP_pressure;BME280_temperature;BME280_humidity;BME280_pressure;Samples;Min_cycle;Max_cycle;Signal;HPM_P1;HPM_P2
2022/01/22 00:02:02;;;;;;;;;;;;;;;16.93;35.68;101055.06;5059133;28;758;-56
2022/01/22 00:04:30;;;;;;;;;;;;;;;17.03;35.65;101042.47;5058366;28;1566;-56
2022/01/22 00:06:58;;;;;;;;;;;;;;;16.93;35.55;101044.09;5039988;28;980;-56
2022/01/22 00:09:26;;;;;;;;;;;;;;;17.12;35.45;101040.84;5055956;28;827;-56
2022/01/22 00:11:53;;;;;;;;;;;;;;;17.04;35.57;101039.47;5054630;28;857;-56
2022/01/22 00:14:24;;;;;;;;;;;;;;;17.06;35.20;101023.50;5058221;28;1905;-55
2022/01/22 00:16:51;;;;;;;;;;;;;;;17.00;35.70;101041.09;5040091;28;960;-55
2022/01/22 00:19:16;;;;;;;;;;;;;;;17.10;35.22;101038.38;5058592;28;939;-58
2022/01/22 00:21:41;;;;;;;;;;;;;;;17.05;35.55;101030.09;5058094;28;762;-57
2022/01/22 00:24:11;;;;;;;;;;;;;;;17.13;35.29;101034.25;5058174;28;828;-58
2022/01/22 00:26:37;;;;;;;;;;;;;;;17.12;35.15;101032.59;5057291;28;937;-57
2022/01/22 00:29:02;;;;;;;;;;;;;;;17.11;35.42;101039.22;5039636;28;945;-58
2022/01/22 00:31:28;;;;;;;;;;;;;;;17.22;35.08;101032.63;5058288;28;801;-58
2022/01/22 00:33:53;;;;;;;;;;;;;;;17.18;35.33;101042.53;5057806;28;1894;-57
2022/01/22 00:36:18;;;;;;;;;;;;;;;17.21;35.22;101032.91;5058042;28;830;-57
2022/01/22 00:38:44;;;;;;;;;;;;;;;17.04;35.51;101020.22;5065228;28;844;-57
2022/01/22 00:41:12;;;;;;;;;;;;;;;17.20;35.35;101042.25;5054097;28;966;-58
2022/01/22 00:43:38;;;;;;;;;;;;;;;17.17;35.23;101023.56;5057915;28;817;-57
2022/01/22 00:46:03;;;;;;;;;;;;;;;17.10;35.41;101019.13;5037262;28;1080;-57
2022/01/22 00:48:29;;;;;;;;;;;;;;;17.21;35.35;101028.22;5057993;28;742;-58
2022/01/22 00:50:56;;;;;;;;;;;;;;;17.25;35.15;101020.25;5060391;28;1150;-57
2022/01/22 00:53:22;;;;;;;;;;;;;;;17.33;35.14;101014.22;5039749;28;1967;-57
2022/01/22 00:55:49;;;;;;;;;;;;;;;17.44;34.78;101021.38;5070308;28;910;-58
2022/01/22 00:58:14;;;;;;;;;;;;;;;17.39;34.72;101024.16;5032249;28;1142;-57
2022/01/22 01:00:39;;;;;;;;;;;;;;;17.41;35.03;101016.44;5038501;28;942;-58
2022/01/22 01:03:05;;;;;;;;;;;;;;;17.52;34.61;101021.97;5039220;28;1123;-58
2022/01/22 01:05:31;;;;;;;;;;;;;;;17.28;34.90;101019.72;5057520;28;786;-57
2022/01/22 01:07:56;;;;;;;;;;;;;;;17.35;34.81;101022.19;5058304;28;1389;-57
2022/01/22 01:10:22;;;;;;;;;;;;;;;17.34;34.96;101024.13;5051051;28;1127;-57
2022/01/22 01:12:50;;;;;;;;;;;;;;;17.37;34.88;101015.31;5057794;28;758;-57
2022/01/22 01:15:36;;;;;;;;;;;;;;;17.22;35.14;101012.56;5057233;28;1902;-57
2022/01/22 01:32:09;;;;;;;;;;;;;;;17.19;35.04;101010.34;5039299;28;1187;-57
2022/01/22 01:34:42;;;;;;;;;;;;;;;17.17;35.19;100998.81;5056789;28;1953;-57
2022/01/22 01:37:08;;;;;;;;;;;;;;;17.16;35.30;100997.16;5039503;28;1249;-57
2022/01/22 01:39:36;;;;;;;;;;;;;;;17.14;35.54;101004.84;5037004;28;1149;-57
2022/01/22 01:42:12;;;;;;;;;;;;;;;17.20;35.16;100998.28;5035452;28;1191;-57
2022/01/22 01:44:39;;;;;;;;;;;;;;;16.99;35.57;100998.22;5039213;28;1151;-57
2022/01/22 01:47:16;;;;;;;;;;;;;;;17.20;35.00;100992.78;5038959;28;1225;-57
2022/01/22 01:49:42;;;;;;;;;;;;;;;17.20;35.05;100995.53;5043128;28;1226;-57
2022/01/22 01:52:32;;;;;;;;;;;;;;;17.32;34.95;100995.25;5057997;28;1377;-57
2022/01/22 01:55:08;;;;;;;;;;;;;;;17.39;34.89;100996.66;5039134;28;1906;-57
2022/01/22 01:57:40;;;;;;;;;;;;;;;17.35;35.02;100987.31;5057855;28;1106;-57
2022/01/22 02:00:11;;;;;;;;;;;;;;;17.34;34.89;100982.91;5028918;28;1461;-57
2022/01/22 02:02:42;;;;;;;;;;;;;;;17.30;34.86;100989.22;5056252;28;682;-57
2022/01/22 02:05:11;;;;;;;;;;;;;;;17.31;35.00;100991.69;5038578;28;1440;-57
2022/01/22 02:07:39;;;;;;;;;;;;;;;17.40;34.94;100991.97;5060810;28;806;-57
2022/01/22 02:10:12;;;;;;;;;;;;;;;17.36;34.92;100980.72;5044008;28;1268;-57
2022/01/22 02:23:37;;;;;;;;;;;;;;;17.70;34.01;100952.66;5075713;28;960;-57
2022/01/22 02:26:03;;;;;;;;;;;;;;;17.69;34.41;100970.25;5037180;28;1268;-57
2022/01/22 02:28:34;;;;;;;;;;;;;;;17.72;34.17;100966.94;5032088;28;1115;-57
2022/01/22 02:31:21;;;;;;;;;;;;;;;17.67;34.19;100953.22;5038557;28;1147;-57
2022/01/22 02:36:31;;;;;;;;;;;;;;;17.79;34.14;100939.16;5075458;28;836;-57
2022/01/22 02:41:26;;;;;;;;;;;;;;;17.56;34.50;100946.06;5036646;28;1108;-56
2022/01/22 02:43:54;;;;;;;;;;;;;;;17.46;34.61;100941.41;5038072;28;1145;-57
2022/01/22 02:46:22;;;;;;;;;;;;;;;17.47;34.62;100943.03;5044168;28;1189;-57
2022/01/22 02:48:47;;;;;;;;;;;;;;;17.48;34.35;100949.38;5075345;28;833;-57
2022/01/22 02:51:13;;;;;;;;;;;;;;;17.34;34.70;100944.41;5038769;28;1198;-57
2022/01/22 02:53:38;;;;;;;;;;;;;;;17.31;34.83;100933.16;5056117;28;1918;-57
2022/01/22 02:56:04;;;;;;;;;;;;;;;17.28;34.51;100940.84;5056589;28;762;-57
2022/01/22 02:58:30;;;;;;;;;;;;;;;17.38;34.54;100945.50;5046490;28;1096;-57
2022/01/22 03:00:58;;;;;;;;;;;;;;;17.34;34.56;100935.34;5075504;28;758;-57
2022/01/22 03:03:24;;;;;;;;;;;;;;;17.35;34.45;100935.06;5057038;28;1103;-57
2022/01/22 03:05:49;;;;;;;;;;;;;;;17.36;34.69;100933.16;5056893;28;1119;-57
2022/01/22 03:08:15;;;;;;;;;;;;;;;17.34;34.43;100925.19;5056820;28;1202;-57
2022/01/22 03:10:44;;;;;;;;;;;;;;;17.17;34.65;100938.38;5055228;28;839;-57
2022/01/22 03:16:03;;;;;;;;;;;;;;;17.26;34.73;100926.56;5020674;28;1330;-57
2022/01/22 03:21:29;;;;;;;;;;;;;;;17.24;34.53;100927.94;5078956;28;786;-57
2022/01/22 03:29:32;;;;;;;;;;;;;;;16.99;35.17;100932.28;5059653;28;834;-57
2022/01/22 03:31:59;;;;;;;;;;;;;;;17.05;34.84;100917.47;5041423;28;1352;-58
2022/01/22 03:34:27;;;;;;;;;;;;;;;16.99;34.92;100915.00;5041315;28;1906;-57
2022/01/22 03:36:52;;;;;;;;;;;;;;;16.85;35.18;100925.66;5062769;28;862;-57
2022/01/22 03:39:19;;;;;;;;;;;;;;;16.80;35.12;100909.97;5056122;28;1373;-57
2022/01/22 03:41:44;;;;;;;;;;;;;;;16.80;35.36;100906.41;5059143;28;793;-57
2022/01/22 03:44:11;;;;;;;;;;;;;;;16.82;35.05;100910.53;5040607;28;1067;-57
2022/01/22 03:46:38;;;;;;;;;;;;;;;16.85;35.20;100936.66;5041133;28;1218;-57
2022/01/22 03:49:04;;;;;;;;;;;;;;;16.75;35.50;100919.03;5044972;28;929;-57
2022/01/22 03:51:30;;;;;;;;;;;;;;;16.68;35.38;100914.91;5039710;28;1138;-57
2022/01/22 03:53:59;;;;;;;;;;;;;;;16.70;35.42;100897.06;5051330;28;1918;-57
2022/01/22 03:56:26;;;;;;;;;;;;;;;16.81;35.06;100908.88;5050777;28;1209;-57
2022/01/22 03:58:51;;;;;;;;;;;;;;;16.87;35.20;100907.81;5058035;28;854;-57
2022/01/22 04:04:45;;;;;;;;;;;;;;;16.79;35.17;100905.59;5056571;28;1197;-56
2022/01/22 04:09:45;;;;;;;;;;;;;;;16.92;34.92;100913.31;5019371;28;1082;-55
2022/01/22 04:12:17;;;;;;;;;;;;;;;16.82;35.04;100912.47;5038241;28;777;-55
2022/01/22 04:14:56;;;;;;;;;;;;;;;16.87;35.00;100917.97;5045547;28;1984;-55
2022/01/22 04:25:39;;;;;;;;;;;;;;;16.74;34.46;100922.88;5036334;28;928;-56
2022/01/22 04:28:05;;;;;;;;;;;;;;;16.75;34.12;100938.25;5045294;28;885;-55
2022/01/22 04:30:30;;;;;;;;;;;;;;;16.70;34.38;100938.22;5057454;28;841;-56
2022/01/22 04:32:56;;;;;;;;;;;;;;;16.62;34.07;100930.56;5055392;28;1199;-56
2022/01/22 04:35:22;;;;;;;;;;;;;;;16.57;33.88;100952.50;5057286;28;1918;-57
2022/01/22 04:37:48;;;;;;;;;;;;;;;16.82;33.14;100937.19;5055508;28;1340;-55
2022/01/22 04:40:13;;;;;;;;;;;;;;;16.98;32.87;100940.81;5045703;28;1081;-55
2022/01/22 04:42:40;;;;;;;;;;;;;;;17.21;32.84;100944.97;5057139;28;790;-55
2022/01/22 04:47:58;;;;;;;;;;;;;;;16.83;33.69;100949.81;5056751;28;770;-55
2022/01/22 04:55:39;;;;;;;;;;;;;;;16.75;33.61;100952.00;5033550;28;1910;-59
2022/01/22 04:58:04;;;;;;;;;;;;;;;16.81;33.84;100941.84;5041888;28;1391;-59
2022/01/22 05:00:32;;;;;;;;;;;;;;;17.00;33.39;100939.44;5037717;28;1533;-60
2022/01/22 05:03:17;;;;;;;;;;;;;;;17.43;32.77;100948.28;5027717;28;1279;-59
2022/01/22 05:06:06;;;;;;;;;;;;;;;17.74;32.32;100950.16;5024137;28;1139;-60
2022/01/22 05:08:46;;;;;;;;;;;;;;;17.94;31.78;100952.09;5035512;28;1150;-59
2022/01/22 05:11:20;;;;;;;;;;;;;;;18.05;31.74;100942.72;5039848;28;1271;-58
2022/01/22 05:13:47;;;;;;;;;;;;;;;18.16;31.30;100935.25;5036395;28;2044;-60
2022/01/22 05:16:13;;;;;;;;;;;;;;;18.32;31.54;100930.50;5035971;28;1963;-60
2022/01/22 05:18:50;;;;;;;;;;;;;;;18.04;31.88;100934.75;5045269;28;1174;-60
2022/01/22 05:21:17;;;;;;;;;;;;;;;17.74;32.35;100942.75;5049092;28;1218;-60
2022/01/22 05:23:44;;;;;;;;;;;;;;;17.21;33.09;100939.47;5055235;28;1130;-60
2022/01/22 05:26:27;;;;;;;;;;;;;;;16.83;33.94;100955.28;5036283;28;1185;-59
2022/01/22 05:37:28;;;;;;;;;;;;;;;17.48;33.00;100949.38;5035272;28;1054;-58
2022/01/22 05:39:54;;;;;;;;;;;;;;;17.63;32.70;100954.88;5034443;28;1099;-59
2022/01/22 05:42:19;;;;;;;;;;;;;;;17.03;33.54;100960.88;5048463;28;1112;-59
2022/01/22 05:44:45;;;;;;;;;;;;;;;16.57;34.49;100957.97;5041567;28;1346;-59
2022/01/22 05:47:12;;;;;;;;;;;;;;;16.40;34.80;100960.94;5054070;28;1207;-58
2022/01/22 05:49:41;;;;;;;;;;;;;;;16.04;35.28;100961.56;5050134;28;1000;-59
2022/01/22 05:52:10;;;;;;;;;;;;;;;16.52;34.65;100963.44;5035832;28;1498;-59
2022/01/22 06:00:11;;;;;;;;;;;;;;;16.72;34.38;100952.53;5039346;28;1536;-59
2022/01/22 06:02:48;;;;;;;;;;;;;;;16.40;34.58;100967.25;5041265;28;1350;-59
2022/01/22 06:05:21;;;;;;;;;;;;;;;16.25;35.13;100956.19;5037289;28;1506;-61
2022/01/22 06:07:47;;;;;;;;;;;;;;;15.97;35.63;100951.94;5040378;28;1385;-61
2022/01/22 06:10:17;;;;;;;;;;;;;;;16.13;35.44;100952.81;5038311;28;1202;-60
2022/01/22 06:15:21;;;;;;;;;;;;;;;17.13;33.33;100940.03;5019353;28;1954;-61
2022/01/22 06:18:22;;;;;;;;;;;;;;;16.96;33.75;100932.00;5014135;28;1207;-60
2022/01/22 06:20:50;;;;;;;;;;;;;;;16.56;34.30;100924.22;5027242;28;1323;-60
2022/01/22 06:23:17;;;;;;;;;;;;;;;16.32;35.02;100934.81;5034758;28;1368;-60
2022/01/22 06:25:43;;;;;;;;;;;;;;;16.31;34.97;100938.66;5036610;28;1226;-58
2022/01/22 06:28:08;;;;;;;;;;;;;;;16.18;35.15;100934.47;5034468;28;1134;-61
2022/01/22 06:30:34;;;;;;;;;;;;;;;16.10;35.44;100932.22;5035154;28;1083;-58
2022/01/22 06:33:00;;;;;;;;;;;;;;;16.16;35.08;100927.59;5047866;28;1190;-60
2022/01/22 06:35:25;;;;;;;;;;;;;;;16.43;34.66;100931.00;5036722;28;1906;-59
2022/01/22 06:37:52;;;;;;;;;;;;;;;16.82;34.01;100926.22;5035249;28;1218;-60
2022/01/22 06:43:26;;;;;;;;;;;;;;;16.69;34.02;100916.53;5037164;28;1155;-58
2022/01/22 06:46:17;;;;;;;;;;;;;;;16.47;34.39;100914.03;5034904;28;1386;-59
2022/01/22 06:48:58;;;;;;;;;;;;;;;16.07;35.22;100927.28;5038942;28;1277;-58
2022/01/22 06:51:47;;;;;;;;;;;;;;;15.92;35.47;100930.75;5039071;28;1327;-58
2022/01/22 06:54:21;;;;;;;;;;;;;;;16.23;35.18;100931.78;5057980;28;1991;-59
2022/01/22 06:56:46;;;;;;;;;;;;;;;16.25;34.75;100931.50;5042796;28;1382;-59
2022/01/22 06:59:14;;;;;;;;;;;;;;;16.47;34.79;100941.47;5041238;28;1410;-60
2022/01/22 07:01:44;;;;;;;;;;;;;;;16.91;33.67;100939.16;5047074;28;1308;-60
2022/01/22 07:04:19;;;;;;;;;;;;;;;16.85;33.75;100933.91;5045704;28;1248;-61
2022/01/22 07:06:57;;;;;;;;;;;;;;;16.31;34.55;100943.31;5047240;28;1144;-61
2022/01/22 07:09:23;;;;;;;;;;;;;;;16.11;35.05;100927.59;5060379;28;887;-58
2022/01/22 07:11:49;;;;;;;;;;;;;;;16.07;35.26;100939.09;5047728;28;1460;-59
2022/01/22 07:14:15;;;;;;;;;;;;;;;16.02;35.32;100925.34;5050269;28;1985;-60
2022/01/22 07:16:40;;;;;;;;;;;;;;;16.17;35.08;100929.25;5060958;28;1130;-58
2022/01/22 07:19:45;;;;;;;;;;;;;;;16.49;34.61;100922.81;5054721;28;1209;-59
2022/01/22 07:25:08;;;;;;;;;;;;;;;17.24;32.87;100903.19;5037166;28;1132;-59
2022/01/22 07:27:35;;;;;;;;;;;;;;;17.15;33.21;100896.59;5041185;28;1502;-59
2022/01/22 07:30:00;;;;;;;;;;;;;;;16.96;33.42;100902.63;5040854;28;1359;-60
2022/01/22 07:32:30;;;;;;;;;;;;;;;16.51;34.38;100895.91;5041354;28;1379;-59
2022/01/22 07:34:56;;;;;;;;;;;;;;;16.25;34.59;100884.84;5041032;28;1977;-60
2022/01/22 07:37:22;;;;;;;;;;;;;;;16.15;35.14;100893.88;5039542;28;1371;-61
2022/01/22 07:39:48;;;;;;;;;;;;;;;16.20;35.00;100890.31;5041948;28;1263;-60
2022/01/22 07:42:41;;;;;;;;;;;;;;;16.16;34.86;100892.78;5040748;28;1107;-60
2022/01/22 07:45:25;;;;;;;;;;;;;;;16.36;34.40;100900.25;5058978;28;631;-59
2022/01/22 07:47:58;;;;;;;;;;;;;;;16.58;34.16;100888.25;5040469;28;1285;-60
2022/01/22 07:50:44;;;;;;;;;;;;;;;16.71;33.63;100882.22;5061959;28;1016;-60
2022/01/22 07:53:09;;;;;;;;;;;;;;;16.86;33.46;100902.59;5058297;28;1160;-60
2022/01/22 07:55:35;;;;;;;;;;;;;;;16.59;34.07;100896.22;5041142;28;1979;-61
2022/01/22 07:58:01;;;;;;;;;;;;;;;16.21;34.74;100890.03;5059999;28;1202;-60
2022/01/22 08:00:28;;;;;;;;;;;;;;;15.98;34.98;100902.28;5059267;28;1278;-60
2022/01/22 08:02:54;;;;;;;;;;;;;;;15.99;35.05;100903.94;5048270;28;1377;-60
2022/01/22 08:05:39;;;;;;;;;;;;;;;16.18;34.63;100911.72;5061703;28;1045;-59
2022/01/22 08:08:34;;;;;;;;;;;;;;;16.42;34.12;100901.94;5035780;28;1431;-58
2022/01/22 08:11:36;;;;;;;;;;;;;;;16.91;33.46;100891.63;4973202;28;1331;-60
2022/01/22 08:14:02;;;;;;;;;;;;;;;16.99;33.13;100885.59;5030814;28;1989;-60
2022/01/22 08:16:28;;;;;;;;;;;;;;;16.91;33.32;100888.88;5066675;28;1409;-59
2022/01/22 08:18:53;;;;;;;;;;;;;;;17.00;32.95;100895.50;5036477;28;1671;-58
2022/01/22 08:21:19;;;;;;;;;;;;;;;16.62;33.84;100883.88;5044190;28;1387;-57
2022/01/22 08:24:06;;;;;;;;;;;;;;;16.41;34.13;100894.78;5060838;28;1307;-55
2022/01/22 08:27:08;;;;;;;;;;;;;;;16.34;34.17;100888.72;5055823;28;1528;-55
2022/01/22 08:29:34;;;;;;;;;;;;;;;15.96;34.62;100888.00;5043148;28;1270;-57
2022/01/22 08:37:35;;;;;;;;;;;;;;;16.80;33.66;100878.94;5058135;28;798;-54
2022/01/22 08:40:02;;;;;;;;;;;;;;;16.59;34.04;100868.78;5036674;28;1127;-57
2022/01/22 08:42:28;;;;;;;;;;;;;;;16.39;34.73;100872.25;5048702;28;1263;-54
2022/01/22 08:44:54;;;;;;;;;;;;;;;16.77;34.24;100881.16;5057772;28;1107;-54
2022/01/22 08:47:19;;;;;;;;;;;;;;;18.66;30.90;100868.38;5068628;28;1373;-56
2022/01/22 08:49:45;;;;;;;;;;;;;;;19.49;29.40;100881.25;5043027;28;1266;-56
2022/01/22 08:52:14;;;;;;;;;;;;;;;19.06;30.03;100864.53;5049310;28;1200;-53
2022/01/22 08:54:41;;;;;;;;;;;;;;;19.87;28.99;100863.22;5037255;28;2049;-56
2022/01/22 08:57:08;;;;;;;;;;;;;;;18.79;30.53;100856.72;5039396;28;1269;-57
2022/01/22 08:59:42;;;;;;;;;;;;;;;17.89;32.00;100851.13;5042127;28;1510;-58
2022/01/22 09:02:08;;;;;;;;;;;;;;;17.60;32.56;100837.19;5039374;28;1219;-56
2022/01/22 09:04:52;;;;;;;;;;;;;;;18.28;31.73;100836.63;5057958;28;1211;-57
2022/01/22 09:07:44;;;;;;;;;;;;;;;19.46;29.49;100843.22;5020319;28;1316;-57
2022/01/22 09:10:09;;;;;;;;;;;;;;;18.76;30.76;100835.25;5073923;28;868;-57
2022/01/22 09:12:38;;;;;;;;;;;;;;;18.52;31.13;100841.47;5076116;28;808;-56
2022/01/22 09:15:15;;;;;;;;;;;;;;;17.80;32.43;100825.28;5076257;28;1977;-57
2022/01/22 09:17:44;;;;;;;;;;;;;;;17.36;33.14;100809.47;5058491;28;1140;-56
2022/01/22 09:20:13;;;;;;;;;;;;;;;19.19;30.09;100815.38;5045089;28;1314;-56
2022/01/22 09:22:39;;;;;;;;;;;;;;;19.76;29.05;100819.16;5039218;28;1127;-58
2022/01/22 09:25:07;;;;;;;;;;;;;;;19.18;30.15;100811.78;5039544;28;1528;-57
2022/01/22 09:27:32;;;;;;;;;;;;;;;19.07;30.23;100816.56;5038919;28;2046;-56
2022/01/22 09:29:58;;;;;;;;;;;;;;;18.12;31.91;100789.13;5057423;28;745;-56
2022/01/22 09:32:24;;;;;;;;;;;;;;;17.94;32.01;100800.78;5040263;28;1087;-56
2022/01/22 09:35:15;;;;;;;;;;;;;;;18.50;31.41;100807.09;5072825;28;1930;-58
2022/01/22 09:37:51;;;;;;;;;;;;;;;19.15;30.37;100793.06;5076267;28;817;-57
2022/01/22 09:40:35;;;;;;;;;;;;;;;19.26;29.69;100799.31;5049094;28;832;-57
2022/01/22 09:43:10;;;;;;;;;;;;;;;17.99;31.81;100781.47;5056648;28;762;-57
2022/01/22 09:46:10;;;;;;;;;;;;;;;18.60;31.24;100782.22;5024479;28;1210;-56
2022/01/22 09:48:55;;;;;;;;;;;;;;;18.94;30.54;100778.66;5075644;28;793;-57
2022/01/22 09:51:39;;;;;;;;;;;;;;;18.77;30.68;100768.84;5037363;28;1154;-58
2022/01/22 09:54:23;;;;;;;;;;;;;;;18.81;30.65;100778.16;5036583;28;1909;-57
2022/01/22 09:56:51;;;;;;;;;;;;;;;18.86;30.57;100773.72;5056400;28;822;-57
2022/01/22 09:59:35;;;;;;;;;;;;;;;19.33;29.72;100772.19;5069815;28;833;-58
2022/01/22 10:02:27;;;;;;;;;;;;;;;19.72;29.10;100770.38;5032123;28;1154;-57
2022/01/22 10:04:52;;;;;;;;;;;;;;;19.86;29.09;100773.28;5038661;28;1302;-58
2022/01/22 10:07:52;;;;;;;;;;;;;;;19.25;29.94;100765.41;5041913;28;1231;-58
2022/01/22 10:10:46;;;;;;;;;;;;;;;19.14;30.29;100763.88;4987146;28;1527;-58
2022/01/22 10:13:38;;;;;;;;;;;;;;;18.39;31.33;100760.31;5037279;28;1156;-58
2022/01/22 10:16:20;;;;;;;;;;;;;;;19.12;30.11;100757.81;5056762;28;1239;-58
2022/01/22 10:18:46;;;;;;;;;;;;;;;19.31;29.92;100753.19;5067966;28;841;-57
2022/01/22 10:21:12;;;;;;;;;;;;;;;19.27;29.76;100751.31;5062357;28;1262;-57
2022/01/22 10:23:41;;;;;;;;;;;;;;;18.45;31.47;100753.69;5073529;28;1220;-57
2022/01/22 10:26:09;;;;;;;;;;;;;;;19.25;30.17;100748.88;5063297;28;1196;-56
2022/01/22 10:28:39;;;;;;;;;;;;;;;19.68;29.14;100756.34;5049259;28;1359;-57
2022/01/22 10:31:07;;;;;;;;;;;;;;;18.54;31.21;100755.84;5062472;28;1347;-56
2022/01/22 10:34:05;;;;;;;;;;;;;;;18.88;30.67;100741.25;4993906;28;1902;-56
2022/01/22 10:36:57;;;;;;;;;;;;;;;19.26;29.93;100744.97;5065359;28;1135;-57
2022/01/22 10:39:41;;;;;;;;;;;;;;;19.70;29.20;100729.31;5057492;28;1167;-57
2022/01/22 10:42:29;;;;;;;;;;;;;;;18.67;30.76;100732.31;5060193;28;794;-57
2022/01/22 10:44:59;;;;;;;;;;;;;;;18.65;30.80;100735.38;5062499;28;1176;-57
2022/01/22 10:47:26;;;;;;;;;;;;;;;18.68;30.94;100729.28;5057788;28;1171;-57
2022/01/22 10:49:51;;;;;;;;;;;;;;;19.18;30.32;100723.59;5042181;28;1525;-56
2022/01/22 10:52:17;;;;;;;;;;;;;;;19.40;29.68;100734.06;5060010;28;1140;-57
2022/01/22 10:54:45;;;;;;;;;;;;;;;18.41;31.35;100722.34;5058074;28;1893;-56
2022/01/22 10:57:11;;;;;;;;;;;;;;;18.78;30.77;100709.88;5059615;28;869;-56
2022/01/22 10:59:37;;;;;;;;;;;;;;;19.31;30.06;100719.31;5060182;28;1338;-57
2022/01/22 11:02:04;;;;;;;;;;;;;;;19.74;29.11;100716.56;5038454;28;1274;-57
2022/01/22 11:04:32;;;;;;;;;;;;;;;19.63;29.36;100723.34;5069889;28;915;-57
2022/01/22 11:06:58;;;;;;;;;;;;;;;18.17;31.83;100713.97;5059557;28;910;-57
2022/01/22 11:09:24;;;;;;;;;;;;;;;18.50;31.35;100713.47;5059243;28;866;-57
2022/01/22 11:11:50;;;;;;;;;;;;;;;18.66;30.72;100698.44;5059698;28;850;-57
2022/01/22 11:14:15;;;;;;;;;;;;;;;18.68;30.91;100700.88;5058648;28;1893;-58
2022/01/22 11:16:41;;;;;;;;;;;;;;;18.87;30.44;100698.25;5078791;28;1371;-57
2022/01/22 11:19:10;;;;;;;;;;;;;;;18.92;30.59;100700.97;5078394;28;737;-57
2022/01/22 11:21:36;;;;;;;;;;;;;;;18.93;30.39;100695.19;5077000;28;853;-58
2022/01/22 11:24:01;;;;;;;;;;;;;;;18.84;30.58;100710.66;5059355;28;970;-56
2022/01/22 11:26:27;;;;;;;;;;;;;;;18.81;30.62;100698.28;5041258;28;1473;-56
2022/01/22 11:28:53;;;;;;;;;;;;;;;19.12;30.04;100692.47;5049580;28;833;-57
2022/01/22 11:31:18;;;;;;;;;;;;;;;19.31;29.58;100702.75;5078102;28;817;-59
2022/01/22 11:33:44;;;;;;;;;;;;;;;19.54;29.49;100697.50;5059364;28;1980;-57
2022/01/22 11:36:16;;;;;;;;;;;;;;;19.57;29.15;100689.47;5078184;28;786;-58
2022/01/22 11:38:42;;;;;;;;;;;;;;;18.50;30.90;100692.25;5035154;28;925;-57
2022/01/22 11:41:09;;;;;;;;;;;;;;;19.39;29.91;100693.00;5056347;28;836;-58
2022/01/22 11:43:50;;;;;;;;;;;;;;;19.66;29.31;100703.44;5071387;28;873;-58
2022/01/22 11:46:18;;;;;;;;;;;;;;;17.85;32.36;100681.41;5058685;28;794;-56
2022/01/22 11:48:49;;;;;;;;;;;;;;;18.32;31.28;100688.25;5058998;28;782;-57
2022/01/22 11:51:22;;;;;;;;;;;;;;;18.52;31.07;100681.75;5055838;28;1541;-58
2022/01/22 11:53:54;;;;;;;;;;;;;;;19.17;30.09;100694.38;5057997;28;1910;-57
2022/01/22 11:56:27;;;;;;;;;;;;;;;19.58;29.56;100690.28;5055878;28;952;-58
2022/01/22 11:59:03;;;;;;;;;;;;;;;19.18;29.72;100681.41;5064002;28;1514;-58
2022/01/22 12:01:37;;;;;;;;;;;;;;;18.10;31.99;100685.94;5059291;28;846;-58
2022/01/22 12:04:03;;;;;;;;;;;;;;;18.77;30.59;100677.94;5058407;28;780;-59
2022/01/22 12:06:28;;;;;;;;;;;;;;;19.47;29.75;100682.16;5069882;28;1414;-58
2022/01/22 12:09:02;;;;;;;;;;;;;;;19.69;29.44;100683.53;5076502;28;925;-57
2022/01/22 12:14:54;;;;;;;;;;;;;;;19.00;30.54;100670.03;5058032;28;1902;-58
2022/01/22 12:17:29;;;;;;;;;;;;;;;19.79;29.08;100669.59;4977054;28;1231;-57
2022/01/22 12:22:35;;;;;;;;;;;;;;;18.37;31.88;100665.38;5058115;28;846;-58
2022/01/22 12:25:02;;;;;;;;;;;;;;;18.86;30.83;100674.56;5053908;28;856;-58
2022/01/22 12:27:47;;;;;;;;;;;;;;;19.30;30.01;100673.53;5057844;28;873;-58
2022/01/22 12:30:13;;;;;;;;;;;;;;;19.71;29.59;100666.66;5057264;28;894;-58
2022/01/22 12:32:44;;;;;;;;;;;;;;;18.39;31.50;100663.97;5075582;28;754;-58
2022/01/22 12:35:12;;;;;;;;;;;;;;;18.69;31.00;100667.56;5077333;28;1974;-58
2022/01/22 12:37:41;;;;;;;;;;;;;;;18.92;30.74;100665.16;5046957;28;746;-57
2022/01/22 12:40:07;;;;;;;;;;;;;;;19.21;30.08;100672.53;5055750;28;887;-58
2022/01/22 12:42:53;;;;;;;;;;;;;;;19.21;30.00;100654.09;5057798;28;897;-56
2022/01/22 12:45:20;;;;;;;;;;;;;;;19.43;29.59;100667.31;5072026;28;892;-57
2022/01/22 12:47:46;;;;;;;;;;;;;;;19.64;29.22;100667.03;5076912;28;800;-57
2022/01/22 12:50:11;;;;;;;;;;;;;;;18.64;31.12;100667.63;5068294;28;1167;-55
2022/01/22 12:52:37;;;;;;;;;;;;;;;18.33;31.37;100678.06;5056938;28;1307;-57
2022/01/22 12:55:16;;;;;;;;;;;;;;;18.34;31.54;100680.56;5060272;28;1991;-56
2022/01/22 12:57:41;;;;;;;;;;;;;;;18.58;31.11;100693.53;5067845;28;845;-56
2022/01/22 13:00:12;;;;;;;;;;;;;;;18.16;31.84;100673.81;5076571;28;781;-56
2022/01/22 13:02:38;;;;;;;;;;;;;;;17.71;32.34;100679.28;5073200;28;1180;-57
2022/01/22 13:05:04;;;;;;;;;;;;;;;17.43;32.73;100675.28;5061531;28;801;-56
2022/01/22 13:07:53;;;;;;;;;;;;;;;17.10;33.23;100681.19;5057090;28;611;-56
2022/01/22 13:10:43;;;;;;;;;;;;;;;16.98;33.40;100682.59;5024647;28;1208;-56
2022/01/22 13:13:10;;;;;;;;;;;;;;;16.66;34.01;100690.06;5057168;28;1171;-57
2022/01/22 13:15:36;;;;;;;;;;;;;;;16.60;34.11;100677.41;5064271;28;1991;-57
2022/01/22 13:18:03;;;;;;;;;;;;;;;16.42;34.57;100687.03;5069553;28;1254;-56
2022/01/22 13:20:32;;;;;;;;;;;;;;;16.13;35.06;100675.75;5076102;28;863;-56
2022/01/22 13:22:58;;;;;;;;;;;;;;;16.47;34.29;100684.28;5060377;28;949;-58
2022/01/22 13:25:23;;;;;;;;;;;;;;;17.56;32.48;100688.44;5044012;28;1222;-57
2022/01/22 13:28:09;;;;;;;;;;;;;;;17.64;32.17;100678.75;5056551;28;1314;-56
2022/01/22 13:30:43;;;;;;;;;;;;;;;17.15;32.80;100682.28;5037620;28;810;-56
2022/01/22 13:33:30;;;;;;;;;;;;;;;16.92;33.12;100690.03;5039371;28;865;-57
2022/01/22 13:36:09;;;;;;;;;;;;;;;16.64;33.80;100684.00;5063621;28;1914;-56
2022/01/22 13:49:36;;;;;;;;;;;;;;;17.28;32.40;100687.19;5070521;28;1047;-57
2022/01/22 13:52:03;;;;;;;;;;;;;;;16.85;33.38;100697.72;5056274;28;1137;-54
2022/01/22 13:54:29;;;;;;;;;;;;;;;16.62;34.11;100686.22;5055917;28;1913;-57
2022/01/22 13:56:57;;;;;;;;;;;;;;;16.55;33.95;100683.75;5055906;28;835;-56
2022/01/22 13:59:27;;;;;;;;;;;;;;;16.20;34.20;100690.88;5055661;28;798;-56
2022/01/22 14:04:51;;;;;;;;;;;;;;;16.93;33.32;100691.69;5075677;28;826;-56
2022/01/22 14:07:17;;;;;;;;;;;;;;;17.20;32.84;100699.56;5075390;28;847;-56
2022/01/22 14:09:54;;;;;;;;;;;;;;;17.13;32.72;100695.47;5067285;28;948;-57
2022/01/22 14:12:20;;;;;;;;;;;;;;;16.88;33.24;100705.38;5050816;28;806;-57
2022/01/22 14:14:57;;;;;;;;;;;;;;;16.81;33.50;100702.09;5075405;28;1906;-57
2022/01/22 14:17:26;;;;;;;;;;;;;;;16.39;34.24;100699.38;5063076;28;1266;-57
2022/01/22 14:20:17;;;;;;;;;;;;;;;16.21;34.37;100689.75;5056245;28;846;-57
2022/01/22 14:22:56;;;;;;;;;;;;;;;16.38;34.46;100695.00;5051891;28;1266;-57
2022/01/22 14:25:22;;;;;;;;;;;;;;;16.86;33.36;100697.44;5047615;28;864;-56
2022/01/22 14:28:13;;;;;;;;;;;;;;;16.76;33.46;100686.47;5060411;28;883;-56
2022/01/22 14:30:40;;;;;;;;;;;;;;;16.37;34.22;100695.28;5056645;28;1689;-57
2022/01/22 14:33:05;;;;;;;;;;;;;;;16.16;34.71;100703.50;5059262;28;1452;-57
2022/01/22 14:35:31;;;;;;;;;;;;;;;16.23;34.59;100706.78;5061134;28;1972;-57
2022/01/22 14:37:59;;;;;;;;;;;;;;;16.08;34.92;100713.06;5061189;28;1128;-57
2022/01/22 14:45:57;;;;;;;;;;;;;;;16.94;33.10;100718.03;5053173;28;1237;-57
2022/01/22 14:48:22;;;;;;;;;;;;;;;16.72;33.85;100727.38;5066775;28;1362;-56
2022/01/22 14:50:48;;;;;;;;;;;;;;;17.41;32.54;100719.56;5062775;28;1296;-56
2022/01/22 14:53:13;;;;;;;;;;;;;;;17.63;31.93;100726.63;5058437;28;1294;-56
2022/01/22 14:55:58;;;;;;;;;;;;;;;17.20;32.84;100726.22;5059304;28;1941;-57
2022/01/22 14:58:24;;;;;;;;;;;;;;;16.80;33.79;100747.13;5057697;28;1213;-56
2022/01/22 15:00:50;;;;;;;;;;;;;;;16.32;34.06;100729.00;5058764;28;1214;-56
2022/01/22 15:03:15;;;;;;;;;;;;;;;16.20;34.79;100743.00;5053271;28;1325;-57
2022/01/22 15:05:43;;;;;;;;;;;;;;;16.62;33.97;100743.88;5049369;28;1356;-56
2022/01/22 15:08:08;;;;;;;;;;;;;;;16.84;33.84;100748.22;5056151;28;1192;-56